createdAt,value
2019-05-17T00:00:57.392Z,9.80
2019-05-17T00:03:23.791Z,9.80
2019-05-17T00:05:50.779Z,9.80
2019-05-17T00:08:29.773Z,9.80
2019-05-17T00:10:46.542Z,9.70
2019-05-17T00:13:14.668Z,9.70
2019-05-17T00:15:41.680Z,9.70
2019-05-17T00:18:08.522Z,9.70
2019-05-17T00:20:37.547Z,9.70
2019-05-17T00:23:06.776Z,9.90
2019-05-17T00:25:32.923Z,9.80
2019-05-17T00:27:59.699Z,9.80
2019-05-17T00:30:26.683Z,9.80
2019-05-17T00:32:53.588Z,9.80
2019-05-17T00:35:20.604Z,9.70
2019-05-17T00:37:47.467Z,9.80
2019-05-17T00:40:16.706Z,9.70
2019-05-17T00:42:43.519Z,9.80
2019-05-17T00:45:11.526Z,9.70
2019-05-17T00:47:38.317Z,9.70
2019-05-17T00:50:07.414Z,9.70
2019-05-17T00:52:36.605Z,9.70
2019-05-17T00:55:03.687Z,9.80
2019-05-17T00:57:30.459Z,9.70
2019-05-17T00:59:57.231Z,9.60
2019-05-17T01:02:23.975Z,9.70
2019-05-17T01:04:50.788Z,9.70
2019-05-17T01:07:17.886Z,9.70
2019-05-17T01:09:47.135Z,9.70
2019-05-17T01:12:16.313Z,9.80
2019-05-17T01:14:42.664Z,9.70
2019-05-17T01:17:09.413Z,9.60
2019-05-17T01:19:36.608Z,9.60
2019-05-17T01:22:03.692Z,9.70
2019-05-17T01:24:30.670Z,9.70
2019-05-17T01:26:57.544Z,9.70
2019-05-17T01:29:26.705Z,9.80
2019-05-17T01:31:53.094Z,9.80
2019-05-17T01:34:19.867Z,9.90
2019-05-17T01:36:46.699Z,9.80
2019-05-17T01:39:17.948Z,9.70
2019-05-17T01:41:42.475Z,9.80
2019-05-17T01:44:09.202Z,9.80
2019-05-17T01:46:37.040Z,9.80
2019-05-17T01:49:06.719Z,9.80
2019-05-17T01:51:33.220Z,9.70
2019-05-17T01:54:00.207Z,9.70
2019-05-17T01:56:26.932Z,9.80
2019-05-17T01:58:53.747Z,9.70
2019-05-17T02:01:20.620Z,11.10
2019-05-17T02:03:47.370Z,9.70
2019-05-17T02:06:16.528Z,9.70
2019-05-17T02:08:43.331Z,9.70
2019-05-17T02:11:10.425Z,9.70
2019-05-17T02:13:37.766Z,9.70
2019-05-17T02:16:06.982Z,9.70
2019-05-17T02:18:33.646Z,9.70
2019-05-17T02:21:00.527Z,9.70
2019-05-17T02:23:27.330Z,9.70
2019-05-17T02:25:54.309Z,9.70
2019-05-17T02:28:21.415Z,9.70
2019-05-17T02:30:48.823Z,9.60
2019-05-17T02:33:15.785Z,9.60
2019-05-17T02:35:43.020Z,9.60
2019-05-17T02:38:13.047Z,9.50
2019-05-17T02:40:39.096Z,9.50
2019-05-17T02:43:06.030Z,9.50
2019-05-17T02:45:33.389Z,9.50
2019-05-17T02:48:03.793Z,9.50
2019-05-17T02:50:32.776Z,9.50
2019-05-17T02:52:58.879Z,9.50
2019-05-17T02:55:25.924Z,9.30
2019-05-17T02:57:53.115Z,9.40
2019-05-17T03:00:23.654Z,9.40
2019-05-17T03:02:49.038Z,9.40
2019-05-17T03:05:17.865Z,9.40
2019-05-17T03:07:44.820Z,9.40
2019-05-17T03:10:22.093Z,9.30
2019-05-17T03:12:43.878Z,9.30
2019-05-17T03:15:12.771Z,9.30
2019-05-17T03:17:38.516Z,9.30
2019-05-17T03:20:06.026Z,9.30
2019-05-17T03:22:33.370Z,9.30
2019-05-17T03:25:03.196Z,9.30
2019-05-17T03:27:29.245Z,9.50
2019-05-17T03:29:56.163Z,9.30
2019-05-17T03:32:26.634Z,9.50
2019-05-17T03:34:56.107Z,9.30
2019-05-17T03:37:26.366Z,9.40
2019-05-17T03:39:53.413Z,9.30
2019-05-17T03:42:18.843Z,9.40
2019-05-17T03:44:45.864Z,9.30
2019-05-17T03:47:13.167Z,9.30
2019-05-17T03:49:43.483Z,9.30
2019-05-17T03:52:08.986Z,9.20
2019-05-17T03:54:35.899Z,9.30
2019-05-17T03:57:03.186Z,9.30
2019-05-17T03:59:33.197Z,9.30
2019-05-17T04:01:59.152Z,9.40
2019-05-17T04:04:25.916Z,9.10
2019-05-17T04:06:53.743Z,9.30
2019-05-17T04:09:22.485Z,9.30
2019-05-17T04:11:49.567Z,9.30
2019-05-17T04:14:16.507Z,9.40
2019-05-17T04:16:43.368Z,9.30
2019-05-17T04:19:13.626Z,9.30
2019-05-17T04:21:38.923Z,9.40
2019-05-17T04:24:05.913Z,9.30
2019-05-17T04:26:32.990Z,9.40
2019-05-17T04:28:59.726Z,9.40
2019-05-17T04:31:30.278Z,9.40
2019-05-17T04:33:55.237Z,9.40
2019-05-17T04:36:22.685Z,9.50
2019-05-17T04:38:52.386Z,9.40
2019-05-17T04:41:36.164Z,9.40
2019-05-17T04:43:47.351Z,9.20
2019-05-17T04:46:14.101Z,9.40
2019-05-17T04:48:43.893Z,9.30
2019-05-17T04:51:12.830Z,9.40
2019-05-17T04:53:38.516Z,9.40
2019-05-17T04:56:05.418Z,9.40
2019-05-17T04:58:33.381Z,9.40
2019-05-17T05:01:03.679Z,9.70
2019-05-17T05:03:32.429Z,9.50
2019-05-17T05:05:58.468Z,9.50
2019-05-17T05:08:25.437Z,9.50
2019-05-17T05:10:53.517Z,9.60
2019-05-17T05:13:22.763Z,9.60
2019-05-17T05:15:52.026Z,9.80
2019-05-17T05:18:18.528Z,9.60
2019-05-17T05:20:45.351Z,9.70
2019-05-17T05:23:13.147Z,9.70
2019-05-17T05:25:42.885Z,9.70
2019-05-17T05:28:11.344Z,9.60
2019-05-17T05:30:38.216Z,9.60
2019-05-17T05:33:05.091Z,9.70
2019-05-17T05:35:31.955Z,9.50
2019-05-17T05:37:58.889Z,9.60
2019-05-17T05:40:25.815Z,9.60
2019-05-17T05:42:52.648Z,9.60
2019-05-17T05:45:19.549Z,9.60
2019-05-17T05:47:46.412Z,9.60
2019-05-17T05:50:13.363Z,9.60
2019-05-17T05:52:42.398Z,9.60
2019-05-17T05:55:09.481Z,9.70
2019-05-17T05:57:36.288Z,9.70
2019-05-17T06:00:04.402Z,9.70
2019-05-17T06:02:32.232Z,9.90
2019-05-17T06:05:01.746Z,9.80
2019-05-17T06:07:27.951Z,9.80
2019-05-17T06:09:54.716Z,9.80
2019-05-17T06:12:27.640Z,9.80
2019-05-17T06:14:52.230Z,9.90
2019-05-17T06:17:18.839Z,9.90
2019-05-17T06:19:45.804Z,10.00
2019-05-17T06:22:12.697Z,10.00
2019-05-17T06:24:39.503Z,10.00
2019-05-17T06:27:06.454Z,10.10
2019-05-17T06:29:33.309Z,10.10
2019-05-17T06:32:02.384Z,10.20
2019-05-17T06:34:28.875Z,10.10
2019-05-17T06:36:55.635Z,10.20
2019-05-17T06:39:22.591Z,10.10
2019-05-17T06:41:49.509Z,10.10
2019-05-17T06:44:16.252Z,10.10
2019-05-17T06:46:43.208Z,10.00
2019-05-17T06:49:11.717Z,10.00
2019-05-17T06:51:38.883Z,10.00
2019-05-17T06:54:05.912Z,10.00
2019-05-17T06:56:32.658Z,10.00
2019-05-17T06:58:59.800Z,10.10
2019-05-17T07:01:26.683Z,10.10
2019-05-17T07:03:53.609Z,10.10
2019-05-17T07:06:22.831Z,10.00
2019-05-17T07:08:49.638Z,10.00
2019-05-17T07:11:16.649Z,10.00
2019-05-17T07:13:43.515Z,10.10
2019-05-17T07:16:10.443Z,10.10
2019-05-17T07:18:39.830Z,10.20
2019-05-17T07:21:06.139Z,10.00
2019-05-17T07:23:32.995Z,10.20
2019-05-17T07:25:59.841Z,10.20
2019-05-17T07:28:26.896Z,10.30
2019-05-17T07:30:53.771Z,10.30
2019-05-17T07:33:20.509Z,10.30
2019-05-17T07:35:49.967Z,10.30
2019-05-17T07:38:16.160Z,10.30
2019-05-17T07:40:43.179Z,10.30
2019-05-17T07:43:14.359Z,10.40
2019-05-17T07:45:40.550Z,10.30
2019-05-17T07:48:09.723Z,10.40
2019-05-17T07:50:36.388Z,10.40
2019-05-17T07:53:03.231Z,10.40
2019-05-17T07:55:30.344Z,10.50
2019-05-17T07:57:57.295Z,10.50
2019-05-17T08:00:24.343Z,10.30
2019-05-17T08:02:51.087Z,10.60
2019-05-17T08:05:17.979Z,10.60
2019-05-17T08:07:44.976Z,10.70
2019-05-17T08:10:12.108Z,10.80
2019-05-17T08:12:40.689Z,10.80
2019-05-17T08:15:10.754Z,10.80
2019-05-17T08:17:39.674Z,10.90
2019-05-17T08:20:06.863Z,10.90
2019-05-17T08:22:33.685Z,10.90
2019-05-17T08:25:00.533Z,11.10
2019-05-17T08:27:29.608Z,11.30
2019-05-17T08:29:56.311Z,11.50
2019-05-17T08:32:23.168Z,11.70
2019-05-17T08:34:51.861Z,11.90
2019-05-17T08:37:20.493Z,12.00
2019-05-17T08:39:47.411Z,12.10
2019-05-17T08:42:14.295Z,12.20
2019-05-17T08:44:41.172Z,12.50
2019-05-17T08:47:10.075Z,12.70
2019-05-17T08:49:36.693Z,12.90
2019-05-17T08:52:03.678Z,13.00
2019-05-17T08:54:30.520Z,13.30
2019-05-17T08:56:57.500Z,13.50
2019-05-17T08:59:24.579Z,13.50
2019-05-17T09:01:51.441Z,13.50
2019-05-17T09:04:20.112Z,13.70
2019-05-17T09:06:47.096Z,14.30
2019-05-17T09:09:13.977Z,14.60
2019-05-17T09:11:40.793Z,14.20
2019-05-17T09:14:10.303Z,14.30
2019-05-17T09:16:36.344Z,15.00
2019-05-17T09:19:03.356Z,15.30
2019-05-17T09:21:31.418Z,15.20
2019-05-17T09:23:59.726Z,15.50
2019-05-17T09:26:26.675Z,15.70
2019-05-17T09:28:53.465Z,15.50
2019-05-17T09:31:20.539Z,15.80
2019-05-17T09:33:49.585Z,15.70
2019-05-17T09:36:16.296Z,16.10
2019-05-17T09:38:43.170Z,16.40
2019-05-17T09:41:09.895Z,17.10
2019-05-17T09:43:36.655Z,17.50
2019-05-17T09:46:03.606Z,17.50
2019-05-17T09:48:30.920Z,17.50
2019-05-17T09:50:59.919Z,17.00
2019-05-17T09:53:26.845Z,16.70
2019-05-17T09:55:53.641Z,16.80
2019-05-17T09:58:21.615Z,17.80
2019-05-17T10:00:49.518Z,17.90
2019-05-17T10:03:16.557Z,17.50
2019-05-17T10:05:43.295Z,17.50
2019-05-17T10:08:11.027Z,18.00
2019-05-17T10:10:40.187Z,17.80
2019-05-17T10:13:09.542Z,18.60
2019-05-17T10:15:35.983Z,19.50
2019-05-17T10:18:02.959Z,19.30
2019-05-17T10:20:29.896Z,19.00
2019-05-17T10:22:56.664Z,18.90
2019-05-17T10:25:23.533Z,19.10
2019-05-17T10:27:50.417Z,18.00
2019-05-17T10:30:17.887Z,18.20
2019-05-17T10:32:44.662Z,19.10
2019-05-17T10:35:12.336Z,20.10
2019-05-17T10:37:40.727Z,20.90
2019-05-17T10:40:10.193Z,21.00
2019-05-17T10:42:39.623Z,20.10
2019-05-17T10:45:06.979Z,19.20
2019-05-17T10:47:33.826Z,18.20
2019-05-17T10:50:00.808Z,17.60
2019-05-17T10:52:29.930Z,17.50
2019-05-17T10:54:56.432Z,17.40
2019-05-17T10:57:23.188Z,17.20
2019-05-17T10:59:50.049Z,17.00
2019-05-17T11:02:19.498Z,16.90
2019-05-17T11:04:45.877Z,17.00
2019-05-17T11:07:12.707Z,17.20
2019-05-17T11:09:40.402Z,17.20
2019-05-17T11:12:07.655Z,17.20
2019-05-17T11:14:48.965Z,17.00
2019-05-17T11:17:03.582Z,16.90
2019-05-17T11:19:30.385Z,16.70
2019-05-17T11:21:57.283Z,16.60
2019-05-17T11:24:24.047Z,16.60
2019-05-17T11:26:50.909Z,16.70
2019-05-17T11:29:17.913Z,16.70
2019-05-17T11:31:44.677Z,16.80
2019-05-17T11:34:11.551Z,16.70
2019-05-17T11:36:38.283Z,16.60
2019-05-17T11:39:05.508Z,16.70
2019-05-17T11:41:32.379Z,16.90
2019-05-17T11:43:59.092Z,17.00
2019-05-17T11:46:35.741Z,17.10
2019-05-17T11:48:54.681Z,17.40
2019-05-17T11:51:21.757Z,17.70
2019-05-17T11:53:48.570Z,17.60
2019-05-17T11:56:15.387Z,17.50
2019-05-17T11:58:42.139Z,17.50
2019-05-17T12:01:09.053Z,17.50
2019-05-17T12:03:35.921Z,17.20
2019-05-17T12:06:02.995Z,17.30
2019-05-17T12:08:29.739Z,17.80
2019-05-17T12:10:56.759Z,17.80
2019-05-17T12:13:23.788Z,17.70
2019-05-17T12:15:50.656Z,17.50
2019-05-17T12:18:17.538Z,17.70
2019-05-17T12:20:44.403Z,17.90
2019-05-17T12:23:11.398Z,18.30
2019-05-17T12:25:38.379Z,18.90
2019-05-17T12:28:05.448Z,19.30
2019-05-17T12:30:32.649Z,19.10
2019-05-17T12:32:59.511Z,19.20
2019-05-17T12:35:26.387Z,19.40
2019-05-17T12:37:53.207Z,19.00
2019-05-17T12:40:20.135Z,18.70
2019-05-17T12:42:47.070Z,18.50
2019-05-17T12:45:14.047Z,18.40
2019-05-17T12:47:40.916Z,18.30
2019-05-17T12:50:08.043Z,18.50
2019-05-17T12:52:34.929Z,18.50
2019-05-17T12:55:01.810Z,18.60
2019-05-17T12:57:28.666Z,18.40
2019-05-17T12:59:55.528Z,18.20
2019-05-17T13:02:22.291Z,17.80
2019-05-17T13:04:49.188Z,17.80
2019-05-17T13:07:16.056Z,17.80
2019-05-17T13:09:42.944Z,18.10
2019-05-17T13:12:09.801Z,18.30
2019-05-17T13:14:36.523Z,18.30
2019-05-17T13:17:03.591Z,18.30
2019-05-17T13:19:30.611Z,18.30
2019-05-17T13:21:57.482Z,18.10
2019-05-17T13:24:24.425Z,18.00
2019-05-17T13:26:51.302Z,17.80
2019-05-17T13:29:18.116Z,17.80
2019-05-17T13:31:44.967Z,17.80
2019-05-17T13:34:11.767Z,17.70
2019-05-17T13:36:38.631Z,17.80
2019-05-17T13:39:05.924Z,18.00
2019-05-17T13:41:32.787Z,18.20
2019-05-17T13:43:59.628Z,18.00
2019-05-17T13:46:33.050Z,18.00
2019-05-17T13:48:55.335Z,18.30
2019-05-17T13:51:22.046Z,18.50
2019-05-17T13:53:48.808Z,18.60
2019-05-17T13:56:15.799Z,18.60
2019-05-17T13:58:42.851Z,18.50
2019-05-17T14:01:09.845Z,18.50
2019-05-17T14:03:36.787Z,18.60
2019-05-17T14:06:04.232Z,18.60
2019-05-17T14:08:31.346Z,18.80
2019-05-17T14:10:58.366Z,18.80
2019-05-17T14:13:25.426Z,18.50
2019-05-17T14:15:54.028Z,18.40
2019-05-17T14:18:20.887Z,18.40
2019-05-17T14:20:47.876Z,18.50
2019-05-17T14:23:14.731Z,18.40
2019-05-17T14:25:41.462Z,18.20
2019-05-17T14:28:11.335Z,18.20
2019-05-17T14:30:37.327Z,18.30
2019-05-17T14:33:04.331Z,18.30
2019-05-17T14:35:31.243Z,18.50
2019-05-17T14:37:58.092Z,18.70
2019-05-17T14:40:24.816Z,18.50
2019-05-17T14:42:51.803Z,18.50
2019-05-17T14:45:18.668Z,18.60
2019-05-17T14:47:45.691Z,18.80
2019-05-17T14:50:13.133Z,18.70
2019-05-17T14:52:39.892Z,18.70
2019-05-17T14:55:07.128Z,18.70
2019-05-17T14:57:34.194Z,18.60
2019-05-17T15:00:01.488Z,18.50
2019-05-17T15:02:28.448Z,18.50
2019-05-17T15:04:55.434Z,18.50
2019-05-17T15:07:22.144Z,18.70
2019-05-17T15:09:49.265Z,18.50
2019-05-17T15:12:27.724Z,18.50
2019-05-17T15:14:44.999Z,18.50
2019-05-17T15:17:11.867Z,18.40
2019-05-17T15:19:38.727Z,18.50
2019-05-17T15:22:05.886Z,18.50
2019-05-17T15:24:32.726Z,18.50
2019-05-17T15:27:05.585Z,18.50
2019-05-17T15:29:28.567Z,18.60
2019-05-17T15:31:55.336Z,18.80
2019-05-17T15:34:22.259Z,19.00
2019-05-17T15:36:49.116Z,19.10
2019-05-17T15:39:16.672Z,19.50
2019-05-17T15:41:44.050Z,19.30
2019-05-17T15:44:11.105Z,19.10
2019-05-17T15:46:37.973Z,19.00
2019-05-17T15:49:05.030Z,18.90
2019-05-17T15:51:31.755Z,18.80
2019-05-17T15:53:58.726Z,18.70
2019-05-17T15:56:25.723Z,18.80
2019-05-17T15:58:52.638Z,18.90
2019-05-17T16:01:19.496Z,18.80
2019-05-17T16:03:46.512Z,18.80
2019-05-17T16:06:13.515Z,18.70
2019-05-17T16:08:40.359Z,18.60
2019-05-17T16:11:07.171Z,18.60
2019-05-17T16:13:34.179Z,18.60
2019-05-17T16:16:01.063Z,18.60
2019-05-17T16:18:27.955Z,18.50
2019-05-17T16:20:54.810Z,18.50
2019-05-17T16:23:21.855Z,18.60
2019-05-17T16:25:48.697Z,18.50
2019-05-17T16:28:15.599Z,18.60
2019-05-17T16:30:42.639Z,18.50
2019-05-17T16:33:09.536Z,18.40
2019-05-17T16:35:36.455Z,18.40
2019-05-17T16:38:03.495Z,18.40
2019-05-17T16:40:30.467Z,18.40
2019-05-17T16:42:57.211Z,18.40
2019-05-17T16:45:24.196Z,18.40
2019-05-17T16:47:51.067Z,18.40
2019-05-17T16:50:19.660Z,18.40
2019-05-17T16:52:46.522Z,18.30
2019-05-17T16:55:13.959Z,18.30
2019-05-17T16:57:40.982Z,18.30
2019-05-17T17:00:24.542Z,18.30
2019-05-17T17:02:51.535Z,18.30
2019-05-17T17:05:18.392Z,18.20
2019-05-17T17:07:45.219Z,18.30
2019-05-17T17:10:12.191Z,18.30
2019-05-17T17:12:38.974Z,18.30
2019-05-17T17:15:06.159Z,18.20
2019-05-17T17:17:33.157Z,18.30
2019-05-17T17:20:00.034Z,18.10
2019-05-17T17:22:27.033Z,18.10
2019-05-17T17:24:53.927Z,18.10
2019-05-17T17:27:20.671Z,18.10
2019-05-17T17:29:47.507Z,18.00
2019-05-17T17:32:21.588Z,18.00
2019-05-17T17:34:43.260Z,18.00
2019-05-17T17:37:10.008Z,18.00
2019-05-17T17:39:36.752Z,18.00
2019-05-17T17:42:03.867Z,17.90
2019-05-17T17:44:31.160Z,17.80
2019-05-17T17:46:57.888Z,17.80
2019-05-17T17:49:24.681Z,17.80
2019-05-17T17:51:51.726Z,17.80
2019-05-17T17:54:18.557Z,17.70
2019-05-17T17:56:45.531Z,17.70
2019-05-17T17:59:12.524Z,17.70
2019-05-17T18:01:39.621Z,17.80
2019-05-17T18:04:06.564Z,17.60
2019-05-17T18:06:33.399Z,17.60
2019-05-17T18:09:00.364Z,17.50
2019-05-17T18:11:27.345Z,17.40
2019-05-17T18:13:54.219Z,17.40
2019-05-17T18:16:21.105Z,17.40
2019-05-17T18:18:47.954Z,17.30
2019-05-17T18:21:15.083Z,17.20
2019-05-17T18:23:41.979Z,17.30
2019-05-17T18:26:08.831Z,17.20
2019-05-17T18:28:35.719Z,17.20
2019-05-17T18:31:02.804Z,17.10
2019-05-17T18:33:29.640Z,17.00
2019-05-17T18:35:56.707Z,17.00
2019-05-17T18:38:26.815Z,16.90
2019-05-17T18:40:53.683Z,17.00
2019-05-17T18:43:20.484Z,16.80
2019-05-17T18:45:47.347Z,16.70
2019-05-17T18:48:14.298Z,16.70
2019-05-17T18:50:41.304Z,16.60
2019-05-17T18:53:16.296Z,16.50
2019-05-17T18:55:37.081Z,16.30
2019-05-17T18:58:04.075Z,16.30
2019-05-17T19:00:31.147Z,16.20
2019-05-17T19:02:58.027Z,16.10
2019-05-17T19:05:24.903Z,16.10
2019-05-17T19:07:51.795Z,16.10
2019-05-17T19:10:18.973Z,15.90
2019-05-17T19:12:46.006Z,15.90
2019-05-17T19:15:13.092Z,15.70
2019-05-17T19:17:40.048Z,15.60
2019-05-17T19:20:07.408Z,15.50
2019-05-17T19:22:34.309Z,15.50
2019-05-17T19:25:01.201Z,15.40
2019-05-17T19:27:28.083Z,15.40
2019-05-17T19:29:54.900Z,15.30
2019-05-17T19:32:21.800Z,15.30
2019-05-17T19:34:48.580Z,15.20
2019-05-17T19:37:15.475Z,15.20
2019-05-17T19:39:42.212Z,15.30
2019-05-17T19:42:09.103Z,15.40
2019-05-17T19:44:36.083Z,15.20
2019-05-17T19:47:03.112Z,15.20
2019-05-17T19:49:30.086Z,15.30
2019-05-17T19:51:56.951Z,15.30
2019-05-17T19:54:23.837Z,15.30
2019-05-17T19:56:50.579Z,15.30
2019-05-17T19:59:17.471Z,15.30
2019-05-17T20:01:44.258Z,15.20
2019-05-17T20:04:17.566Z,15.30
2019-05-17T20:06:44.805Z,15.30
2019-05-17T20:09:11.539Z,15.30
2019-05-17T20:11:38.585Z,15.30
2019-05-17T20:14:05.443Z,15.20
2019-05-17T20:16:33.022Z,15.20
2019-05-17T20:19:00.368Z,15.20
2019-05-17T20:21:27.228Z,15.20
2019-05-17T20:23:54.011Z,15.20
2019-05-17T20:26:20.884Z,15.20
2019-05-17T20:28:47.679Z,15.20
2019-05-17T20:31:14.626Z,15.20
2019-05-17T20:33:41.719Z,15.20
2019-05-17T20:36:08.644Z,15.20
2019-05-17T20:38:35.419Z,15.20
2019-05-17T20:41:02.398Z,15.20
2019-05-17T20:43:29.440Z,15.20
2019-05-17T20:45:56.181Z,15.20
2019-05-17T20:48:25.769Z,15.10
2019-05-17T20:50:51.722Z,15.20
2019-05-17T20:53:19.468Z,15.20
2019-05-17T20:55:46.412Z,15.20
2019-05-17T20:58:13.148Z,15.30
2019-05-17T21:00:40.139Z,15.30
2019-05-17T21:03:06.979Z,15.30
2019-05-17T21:05:33.992Z,15.30
2019-05-17T21:08:00.976Z,15.20
2019-05-17T21:10:27.765Z,15.20
2019-05-17T21:12:54.658Z,15.10
2019-05-17T21:15:21.512Z,15.00
2019-05-17T21:17:48.536Z,14.90
2019-05-17T21:20:16.902Z,14.90
2019-05-17T21:22:43.713Z,15.00
2019-05-17T21:25:10.867Z,14.80
2019-05-17T21:27:37.790Z,14.70
2019-05-17T21:30:05.243Z,14.70
2019-05-17T21:32:32.219Z,14.70
2019-05-17T21:34:59.168Z,14.70
2019-05-17T21:37:25.915Z,14.60
2019-05-17T21:39:52.796Z,14.70
2019-05-17T21:42:19.649Z,14.60
2019-05-17T21:44:46.529Z,14.60
2019-05-17T21:47:13.243Z,14.50
2019-05-17T21:49:40.115Z,14.50
2019-05-17T21:52:07.004Z,14.40
2019-05-17T21:54:33.887Z,14.40
2019-05-17T21:57:00.643Z,14.30
2019-05-17T21:59:27.476Z,14.30
2019-05-17T22:01:55.135Z,14.30
2019-05-17T22:04:22.005Z,14.30
2019-05-17T22:06:48.760Z,14.30
2019-05-17T22:09:15.831Z,14.20
2019-05-17T22:11:45.183Z,14.20
2019-05-17T22:14:12.193Z,14.20
2019-05-17T22:16:38.963Z,14.20
2019-05-17T22:19:05.953Z,14.20
2019-05-17T22:21:32.706Z,14.20
2019-05-17T22:23:59.543Z,14.20
2019-05-17T22:26:26.351Z,14.20
2019-05-17T22:28:53.200Z,14.20
2019-05-17T22:31:20.055Z,14.20
2019-05-17T22:33:46.912Z,14.20
2019-05-17T22:36:13.881Z,14.10
2019-05-17T22:38:41.074Z,14.10
2019-05-17T22:41:07.991Z,14.00
2019-05-17T22:43:34.994Z,14.10
2019-05-17T22:46:01.984Z,14.10
2019-05-17T22:48:28.935Z,14.00
2019-05-17T22:50:55.679Z,14.00
2019-05-17T22:53:22.866Z,14.00
2019-05-17T22:55:49.609Z,14.00
2019-05-17T22:58:16.662Z,13.90
2019-05-17T23:00:43.951Z,13.90
2019-05-17T23:03:10.683Z,13.90
2019-05-17T23:05:37.555Z,14.00
2019-05-17T23:08:04.323Z,13.90
2019-05-17T23:10:34.892Z,13.80
2019-05-17T23:13:00.182Z,13.80
2019-05-17T23:15:29.400Z,13.70
2019-05-17T23:17:56.276Z,13.70
2019-05-17T23:20:23.127Z,13.60
2019-05-17T23:22:49.908Z,13.60
2019-05-17T23:25:16.887Z,13.40
2019-05-17T23:27:43.635Z,13.50
2019-05-17T23:30:10.827Z,13.40
2019-05-17T23:32:37.644Z,13.40
2019-05-17T23:35:04.657Z,13.40
2019-05-17T23:37:31.511Z,13.40
2019-05-17T23:39:58.360Z,13.30
2019-05-17T23:42:25.208Z,13.30
2019-05-17T23:44:52.055Z,13.20
2019-05-17T23:47:18.850Z,13.20
2019-05-17T23:49:45.706Z,13.20
2019-05-17T23:52:12.554Z,13.20
2019-05-17T23:54:39.268Z,13.20
2019-05-17T23:57:06.091Z,13.20
2019-05-17T23:59:32.831Z,13.10
